Time;durP1;ratioP1;P1;durP2;ratioP2;P2;SDS_P1;SDS_P2;PMS_P1;PMS_P2;Temp;Humidity;BMP_temperature;BMP_pressure;BME280_temperature;BME280_humidity;BME280_pressure;Samples;Min_cycle;Max_cycle;Signal;HPM_P1;HPM_P2
2023/12/24 00:02:44;;;;;;;4.30;1.60;;;;;;;;;;5797440;28;20043;-79
2023/12/24 00:05:34;;;;;;;3.53;2.00;;;;;;;;;;5796072;28;20048;-79
2023/12/24 00:08:28;;;;;;;6.00;2.40;;;;;;;;;;5796096;28;20051;-79
2023/12/24 00:11:19;;;;;;;10.20;1.77;;;;;;;;;;5796161;28;20054;-79
2023/12/24 00:14:10;;;;;;;1.70;1.50;;;;;;;;;;5795939;28;20082;-79
2023/12/24 00:17:01;;;;;;;1.77;1.23;;;;;;;;;;5797200;28;20051;-79
2023/12/24 00:19:51;;;;;;;2.10;1.95;;;;;;;;;;5796268;28;20058;-79
2023/12/24 00:22:42;;;;;;;1.35;1.27;;;;;;;;;;5795600;28;20133;-79
2023/12/24 00:25:35;;;;;;;2.88;1.23;;;;;;;;;;5795438;28;20046;-79
2023/12/24 00:28:26;;;;;;;3.90;1.40;;;;;;;;;;5795708;28;20500;-79
2023/12/24 00:31:17;;;;;;;1.33;1.23;;;;;;;;;;5795841;28;20047;-79
2023/12/24 00:34:08;;;;;;;1.15;1.05;;;;;;;;;;5795569;28;20050;-79
2023/12/24 00:36:59;;;;;;;3.55;1.45;;;;;;;;;;5796008;28;20382;-80
2023/12/24 00:39:50;;;;;;;6.43;2.17;;;;;;;;;;5795363;28;20061;-79
2023/12/24 00:42:41;;;;;;;3.83;2.25;;;;;;;;;;5779403;28;20417;-79
2023/12/24 00:45:32;;;;;;;2.47;2.15;;;;;;;;;;5795137;28;20058;-79
2023/12/24 00:48:23;;;;;;;6.35;3.47;;;;;;;;;;5796385;28;20047;-79
2023/12/24 00:51:14;;;;;;;2.90;1.45;;;;;;;;;;5795284;28;20137;-79
2023/12/24 00:54:05;;;;;;;3.60;1.55;;;;;;;;;;5795041;28;20421;-79
2023/12/24 00:56:56;;;;;;;2.55;1.25;;;;;;;;;;5795492;28;20435;-79
2023/12/24 00:59:47;;;;;;;1.90;1.73;;;;;;;;;;5795243;28;20646;-79
2023/12/24 01:02:37;;;;;;;2.33;1.02;;;;;;;;;;5785178;28;20409;-79
2023/12/24 01:05:28;;;;;;;1.40;1.30;;;;;;;;;;5805489;28;20061;-79
2023/12/24 01:08:19;;;;;;;2.22;1.67;;;;;;;;;;5794750;28;20046;-79
2023/12/24 01:11:12;;;;;;;3.08;2.15;;;;;;;;;;5796160;28;20058;-79
2023/12/24 01:14:03;;;;;;;1.95;1.33;;;;;;;;;;5794856;28;20046;-79
2023/12/24 01:16:54;;;;;;;2.45;1.48;;;;;;;;;;5803868;28;20394;-79
2023/12/24 01:19:45;;;;;;;1.63;1.52;;;;;;;;;;5778810;28;20043;-79
2023/12/24 01:22:35;;;;;;;3.13;1.55;;;;;;;;;;5794605;28;20425;-79
2023/12/24 01:25:26;;;;;;;1.33;1.23;;;;;;;;;;5778535;28;20057;-80
2023/12/24 01:28:17;;;;;;;6.88;1.33;;;;;;;;;;5794713;28;20432;-80
2023/12/24 01:31:07;;;;;;;1.92;1.15;;;;;;;;;;5788772;28;20417;-80
2023/12/24 01:33:58;;;;;;;3.85;1.40;;;;;;;;;;5796226;28;20443;-80
2023/12/24 01:36:49;;;;;;;1.92;1.15;;;;;;;;;;5778526;28;20061;-79
2023/12/24 01:39:40;;;;;;;0.95;0.95;;;;;;;;;;5794085;28;20042;-80
2023/12/24 01:42:30;;;;;;;0.90;0.90;;;;;;;;;;5793902;28;20047;-80
2023/12/24 01:45:21;;;;;;;5.72;1.05;;;;;;;;;;5794205;28;20185;-79
2023/12/24 01:48:18;;;;;;;3.55;0.85;;;;;;;;;;5778197;28;20058;-81
2023/12/24 01:51:09;;;;;;;1.42;0.95;;;;;;;;;;5778165;28;20170;-80
2023/12/24 01:54:01;;;;;;;0.98;0.98;;;;;;;;;;5794343;28;20201;-80
2023/12/24 01:56:55;;;;;;;1.80;1.67;;;;;;;;;;5778695;28;20055;-80
2023/12/24 01:59:46;;;;;;;3.75;1.60;;;;;;;;;;5793792;28;20515;-80
2023/12/24 02:02:38;;;;;;;2.97;1.73;;;;;;;;;;5807990;28;20042;-79
2023/12/24 02:05:30;;;;;;;1.60;1.42;;;;;;;;;;5793446;28;20041;-80
2023/12/24 02:08:21;;;;;;;4.05;1.30;;;;;;;;;;5793687;28;20062;-79
2023/12/24 02:11:12;;;;;;;1.15;1.05;;;;;;;;;;5793943;28;20050;-80
2023/12/24 02:14:03;;;;;;;2.97;1.90;;;;;;;;;;5793470;28;20043;-80
2023/12/24 02:16:57;;;;;;;1.75;1.13;;;;;;;;;;5793204;28;20521;-80
2023/12/24 02:19:48;;;;;;;1.17;1.02;;;;;;;;;;5777822;28;20425;-81
2023/12/24 02:22:39;;;;;;;1.75;1.58;;;;;;;;;;5794648;28;20050;-80
2023/12/24 02:25:31;;;;;;;4.85;1.50;;;;;;;;;;5777118;28;20047;-80
2023/12/24 02:28:25;;;;;;;4.65;1.50;;;;;;;;;;5793407;28;20869;-80
2023/12/24 02:31:20;;;;;;;8.60;1.13;;;;;;;;;;5793399;28;20081;-81
2023/12/24 02:34:16;;;;;;;0.73;0.73;;;;;;;;;;5777448;28;20146;-80
2023/12/24 02:37:08;;;;;;;1.15;0.98;;;;;;;;;;5803313;28;20132;-79
2023/12/24 02:40:00;;;;;;;4.78;1.40;;;;;;;;;;5802677;28;20059;-81
2023/12/24 02:42:50;;;;;;;0.55;0.55;;;;;;;;;;5794636;28;20424;-80
2023/12/24 02:45:44;;;;;;;0.93;0.80;;;;;;;;;;5808955;28;20494;-80
2023/12/24 02:48:35;;;;;;;0.82;0.77;;;;;;;;;;5792942;28;20412;-80
2023/12/24 02:51:28;;;;;;;1.08;0.68;;;;;;;;;;5792722;28;20078;-81
2023/12/24 02:54:19;;;;;;;0.55;0.55;;;;;;;;;;5792630;28;20077;-80
2023/12/24 02:57:10;;;;;;;1.00;1.00;;;;;;;;;;5776652;28;20053;-80
2023/12/24 03:00:01;;;;;;;1.27;0.88;;;;;;;;;;5776951;28;20527;-79
2023/12/24 03:02:52;;;;;;;0.60;0.60;;;;;;;;;;5794698;28;20062;-81
2023/12/24 03:05:43;;;;;;;0.43;0.43;;;;;;;;;;5793212;28;20043;-80
2023/12/24 03:08:34;;;;;;;0.77;0.70;;;;;;;;;;5793904;28;20130;-80
2023/12/24 03:11:27;;;;;;;1.15;1.05;;;;;;;;;;5808693;28;20118;-81
2023/12/24 03:14:17;;;;;;;0.90;0.90;;;;;;;;;;5794029;28;20050;-80
2023/12/24 03:17:08;;;;;;;0.80;0.70;;;;;;;;;;5792464;28;20058;-81
2023/12/24 03:19:59;;;;;;;1.13;0.98;;;;;;;;;;5792917;28;20051;-81
2023/12/24 03:22:50;;;;;;;2.72;1.23;;;;;;;;;;5808534;28;20073;-81
2023/12/24 03:25:41;;;;;;;2.10;1.05;;;;;;;;;;5807299;28;20124;-81
2023/12/24 03:28:32;;;;;;;1.80;1.40;;;;;;;;;;5795426;28;20046;-80
2023/12/24 03:31:26;;;;;;;1.63;1.52;;;;;;;;;;5812843;28;20054;-81
2023/12/24 03:34:17;;;;;;;3.08;1.60;;;;;;;;;;5813310;28;20453;-80
2023/12/24 03:37:07;;;;;;;2.10;0.77;;;;;;;;;;5797940;28;20042;-80
2023/12/24 03:39:58;;;;;;;2.05;1.30;;;;;;;;;;5798696;28;20077;-81
2023/12/24 03:42:49;;;;;;;5.63;1.42;;;;;;;;;;5796377;28;20050;-81
2023/12/24 03:45:40;;;;;;;2.15;1.20;;;;;;;;;;5796429;28;20181;-81
2023/12/24 03:48:32;;;;;;;0.82;0.68;;;;;;;;;;5796333;28;20051;-81
2023/12/24 03:51:23;;;;;;;2.70;0.98;;;;;;;;;;5796392;28;20058;-81
2023/12/24 03:54:14;;;;;;;3.03;1.95;;;;;;;;;;5780695;28;20097;-82
2023/12/24 03:57:05;;;;;;;2.92;1.15;;;;;;;;;;5797645;28;20053;-81
2023/12/24 03:59:55;;;;;;;6.97;1.52;;;;;;;;;;5797882;28;20047;-81
2023/12/24 04:02:46;;;;;;;4.90;2.15;;;;;;;;;;5796365;28;20531;-81
2023/12/24 04:05:37;;;;;;;1.95;1.00;;;;;;;;;;5797220;28;20137;-81
2023/12/24 04:08:28;;;;;;;2.00;1.38;;;;;;;;;;5797405;28;20469;-81
2023/12/24 04:11:19;;;;;;;3.13;2.08;;;;;;;;;;5795919;28;20476;-81
2023/12/24 04:14:09;;;;;;;6.85;1.70;;;;;;;;;;5797403;28;20082;-81
2023/12/24 04:17:02;;;;;;;4.10;2.60;;;;;;;;;;5796197;28;20051;-81
2023/12/24 04:19:52;;;;;;;1.55;1.30;;;;;;;;;;5796028;28;20136;-82
2023/12/24 04:22:43;;;;;;;7.78;1.90;;;;;;;;;;5797456;28;20055;-81
2023/12/24 04:25:34;;;;;;;4.47;3.20;;;;;;;;;;5795522;28;20054;-81
2023/12/24 04:28:25;;;;;;;11.32;3.88;;;;;;;;;;5795815;28;20059;-81
2023/12/24 04:31:15;;;;;;;4.35;3.20;;;;;;;;;;5811738;28;20050;-81
2023/12/24 04:34:07;;;;;;;3.33;3.00;;;;;;;;;;5811725;28;20054;-81
2023/12/24 04:36:58;;;;;;;4.40;2.67;;;;;;;;;;5812003;28;20144;-81
2023/12/24 04:39:49;;;;;;;8.13;2.92;;;;;;;;;;5796211;28;20396;-83
2023/12/24 04:42:40;;;;;;;7.90;2.47;;;;;;;;;;5796466;28;20464;-82
2023/12/24 04:45:31;;;;;;;5.45;3.22;;;;;;;;;;5796642;28;20051;-82
2023/12/24 04:48:22;;;;;;;16.38;3.08;;;;;;;;;;5796497;28;20050;-82
2023/12/24 04:51:13;;;;;;;9.52;3.15;;;;;;;;;;5796419;28;20055;-82
2023/12/24 04:54:04;;;;;;;4.70;2.20;;;;;;;;;;5794996;28;20051;-81
2023/12/24 04:56:55;;;;;;;2.58;1.33;;;;;;;;;;5797038;28;20051;-82
2023/12/24 04:59:46;;;;;;;3.97;1.15;;;;;;;;;;5794874;28;20043;-82
2023/12/24 05:02:37;;;;;;;3.92;2.08;;;;;;;;;;5794840;28;20046;-82
2023/12/24 05:05:28;;;;;;;3.08;2.25;;;;;;;;;;5796024;28;20140;-81
2023/12/24 05:08:19;;;;;;;6.32;2.78;;;;;;;;;;5796387;28;20066;-81
2023/12/24 05:11:10;;;;;;;7.18;2.17;;;;;;;;;;5795894;28;20055;-81
2023/12/24 05:14:01;;;;;;;3.63;2.95;;;;;;;;;;5794995;28;20055;-82
2023/12/24 05:16:52;;;;;;;3.97;1.60;;;;;;;;;;5796158;28;20445;-82
2023/12/24 05:19:42;;;;;;;3.55;2.28;;;;;;;;;;5794648;28;20412;-82
2023/12/24 05:22:36;;;;;;;9.98;2.60;;;;;;;;;;5795423;28;20053;-82
2023/12/24 05:25:27;;;;;;;1.45;0.90;;;;;;;;;;5795521;28;20053;-82
2023/12/24 05:28:18;;;;;;;2.67;1.55;;;;;;;;;;5795493;28;20633;-81
2023/12/24 05:31:09;;;;;;;1.40;1.30;;;;;;;;;;5804738;28;20055;-81
2023/12/24 05:33:59;;;;;;;1.48;1.38;;;;;;;;;;5803819;28;20057;-82
2023/12/24 05:36:50;;;;;;;1.30;1.17;;;;;;;;;;5794800;28;20054;-82
2023/12/24 05:39:45;;;;;;;0.90;0.90;;;;;;;;;;5811113;28;20054;-82
2023/12/24 05:42:35;;;;;;;7.63;1.30;;;;;;;;;;5796230;28;20097;-81
2023/12/24 05:45:26;;;;;;;1.00;0.98;;;;;;;;;;5779903;28;20047;-82
2023/12/24 05:48:17;;;;;;;1.90;0.93;;;;;;;;;;5797771;28;20406;-81
2023/12/24 05:51:09;;;;;;;5.13;3.17;;;;;;;;;;5810816;28;20520;-81
2023/12/24 05:54:00;;;;;;;6.13;2.08;;;;;;;;;;5779471;28;20066;-82
2023/12/24 05:56:50;;;;;;;5.25;2.78;;;;;;;;;;5794613;28;20059;-82
2023/12/24 05:59:41;;;;;;;2.15;1.50;;;;;;;;;;5794041;28;20051;-82
2023/12/24 06:02:32;;;;;;;1.75;1.48;;;;;;;;;;5810063;28;20046;-82
2023/12/24 06:05:23;;;;;;;5.30;3.65;;;;;;;;;;5778019;28;20548;-82
2023/12/24 06:08:16;;;;;;;3.15;1.75;;;;;;;;;;5777494;28;20532;-81
2023/12/24 06:11:17;;;;;;;19.50;2.42;;;;;;;;;;5795210;28;20154;-81
2023/12/24 06:14:08;;;;;;;2.92;1.80;;;;;;;;;;5793674;28;20050;-82
2023/12/24 06:16:59;;;;;;;5.78;2.42;;;;;;;;;;5777829;28;20142;-82
2023/12/24 06:19:50;;;;;;;8.50;2.30;;;;;;;;;;5794654;28;20063;-82
2023/12/24 06:22:41;;;;;;;4.60;1.70;;;;;;;;;;5794470;28;20065;-82
2023/12/24 06:25:34;;;;;;;2.20;2.00;;;;;;;;;;5794305;28;20047;-82
2023/12/24 06:28:24;;;;;;;3.58;2.05;;;;;;;;;;5794342;28;20046;-82
2023/12/24 06:31:22;;;;;;;3.42;2.17;;;;;;;;;;5792930;28;20047;-82
2023/12/24 06:34:14;;;;;;;2.35;2.03;;;;;;;;;;5792986;28;20046;-82
2023/12/24 06:37:04;;;;;;;3.15;0.98;;;;;;;;;;5776796;28;20066;-82
2023/12/24 06:39:55;;;;;;;3.97;1.42;;;;;;;;;;5794697;28;20366;-82
2023/12/24 06:42:46;;;;;;;1.23;1.00;;;;;;;;;;5808501;28;20042;-82
2023/12/24 06:45:37;;;;;;;2.88;2.20;;;;;;;;;;5793995;28;20053;-82
2023/12/24 06:48:28;;;;;;;5.25;1.85;;;;;;;;;;5794048;28;20038;-82
2023/12/24 06:51:18;;;;;;;2.28;1.45;;;;;;;;;;5792455;28;20055;-82
2023/12/24 06:54:10;;;;;;;3.15;1.75;;;;;;;;;;5792362;28;20051;-82
2023/12/24 06:57:00;;;;;;;2.38;1.58;;;;;;;;;;5793724;28;20055;-80
2023/12/24 06:59:51;;;;;;;4.00;1.75;;;;;;;;;;5776926;28;20051;-82
2023/12/24 07:02:42;;;;;;;3.92;2.08;;;;;;;;;;5794032;28;20046;-82
2023/12/24 07:05:35;;;;;;;6.22;2.55;;;;;;;;;;5801028;28;20416;-82
2023/12/24 07:08:26;;;;;;;8.57;4.03;;;;;;;;;;5812824;28;20061;-82
2023/12/24 07:11:19;;;;;;;4.88;3.78;;;;;;;;;;5800053;28;20197;-82
2023/12/24 07:14:09;;;;;;;5.25;4.72;;;;;;;;;;5801868;28;20090;-82
2023/12/24 07:17:00;;;;;;;4.50;3.45;;;;;;;;;;5810146;28;20061;-82
2023/12/24 07:19:51;;;;;;;3.97;2.35;;;;;;;;;;5801581;28;20453;-83
2023/12/24 07:22:42;;;;;;;4.50;2.50;;;;;;;;;;5801668;28;20049;-82
2023/12/24 07:25:33;;;;;;;7.13;1.92;;;;;;;;;;5799963;28;20047;-82
2023/12/24 07:28:24;;;;;;;2.08;1.80;;;;;;;;;;5800066;28;20082;-82
2023/12/24 07:31:15;;;;;;;3.58;2.05;;;;;;;;;;5799953;28;20072;-82
2023/12/24 07:34:05;;;;;;;3.45;1.58;;;;;;;;;;5801260;28;20051;-82
2023/12/24 07:36:56;;;;;;;4.30;2.00;;;;;;;;;;5800671;28;20498;-82
2023/12/24 07:39:47;;;;;;;10.98;7.00;;;;;;;;;;5801111;28;20050;-82
2023/12/24 07:42:38;;;;;;;5.43;3.60;;;;;;;;;;5801208;28;20539;-82
2023/12/24 07:45:28;;;;;;;5.32;3.40;;;;;;;;;;5799333;28;20501;-82
2023/12/24 07:48:19;;;;;;;3.25;2.63;;;;;;;;;;5799633;28;20046;-82
2023/12/24 07:51:10;;;;;;;6.85;2.28;;;;;;;;;;5800774;28;20054;-82
2023/12/24 07:54:03;;;;;;;5.30;2.63;;;;;;;;;;5800831;28;20070;-82
2023/12/24 07:56:54;;;;;;;7.63;3.42;;;;;;;;;;5799876;28;20479;-82
2023/12/24 07:59:44;;;;;;;4.65;2.40;;;;;;;;;;5800913;28;20142;-82
2023/12/24 08:02:35;;;;;;;7.13;3.35;;;;;;;;;;5799148;28;20050;-82
2023/12/24 08:05:26;;;;;;;1.95;1.75;;;;;;;;;;5800815;28;20134;-82
2023/12/24 08:08:17;;;;;;;2.10;1.88;;;;;;;;;;5800709;28;20077;-82
2023/12/24 08:11:07;;;;;;;2.95;2.47;;;;;;;;;;5800530;28;20055;-81
2023/12/24 08:14:08;;;;;;;1.88;1.73;;;;;;;;;;5799549;28;20567;-82
2023/12/24 08:17:00;;;;;;;1.88;1.48;;;;;;;;;;5797791;28;20050;-82
2023/12/24 08:19:51;;;;;;;4.03;2.45;;;;;;;;;;5797358;28;20051;-81
2023/12/24 08:22:44;;;;;;;7.18;1.77;;;;;;;;;;5795585;28;20065;-82
2023/12/24 08:25:34;;;;;;;7.43;2.83;;;;;;;;;;5795134;28;20057;-81
2023/12/24 08:28:25;;;;;;;5.63;4.32;;;;;;;;;;5795550;28;20047;-82
2023/12/24 08:31:16;;;;;;;4.32;3.75;;;;;;;;;;5795508;28;20043;-81
2023/12/24 08:34:07;;;;;;;5.32;3.45;;;;;;;;;;5795206;28;20055;-82
2023/12/24 08:36:59;;;;;;;3.65;2.47;;;;;;;;;;5797010;28;20046;-82
2023/12/24 08:39:49;;;;;;;4.60;3.17;;;;;;;;;;5795357;28;20051;-82
2023/12/24 08:42:40;;;;;;;5.03;2.67;;;;;;;;;;5811169;28;20050;-82
2023/12/24 08:45:31;;;;;;;7.68;4.82;;;;;;;;;;5796254;28;20496;-82
2023/12/24 08:48:22;;;;;;;10.20;2.80;;;;;;;;;;5811111;28;20066;-82
2023/12/24 08:51:13;;;;;;;4.57;3.35;;;;;;;;;;5794801;28;20053;-82
2023/12/24 08:54:03;;;;;;;7.80;5.20;;;;;;;;;;5795026;28;20062;-82
2023/12/24 08:56:54;;;;;;;5.43;2.97;;;;;;;;;;5795216;28;20087;-82
2023/12/24 08:59:45;;;;;;;4.50;2.00;;;;;;;;;;5779187;28;20042;-82
2023/12/24 09:02:38;;;;;;;3.63;2.22;;;;;;;;;;5811010;28;20113;-82
2023/12/24 09:05:29;;;;;;;2.70;2.00;;;;;;;;;;5794559;28;20057;-82
2023/12/24 09:08:20;;;;;;;2.65;2.08;;;;;;;;;;5794717;28;20057;-82
2023/12/24 09:11:10;;;;;;;1.27;1.17;;;;;;;;;;5810957;28;20486;-82
2023/12/24 09:14:02;;;;;;;2.13;1.92;;;;;;;;;;5795915;28;20523;-81
2023/12/24 09:16:53;;;;;;;1.70;1.38;;;;;;;;;;5796285;28;20062;-82
2023/12/24 09:19:46;;;;;;;3.95;1.90;;;;;;;;;;5795738;28;20113;-83
2023/12/24 09:22:39;;;;;;;3.60;2.65;;;;;;;;;;5795725;28;20043;-83
2023/12/24 09:25:31;;;;;;;3.00;2.70;;;;;;;;;;5793541;28;20047;-83
2023/12/24 09:28:22;;;;;;;4.57;2.95;;;;;;;;;;5778481;28;20523;-83
2023/12/24 09:31:13;;;;;;;1.73;1.48;;;;;;;;;;5795612;28;20072;-83
2023/12/24 09:34:04;;;;;;;0.93;0.93;;;;;;;;;;5795353;28;20054;-83
2023/12/24 09:36:55;;;;;;;5.22;1.50;;;;;;;;;;5795783;28;20653;-83
2023/12/24 09:39:46;;;;;;;0.95;0.82;;;;;;;;;;5795286;28;20042;-84
2023/12/24 09:42:37;;;;;;;2.00;1.40;;;;;;;;;;5795451;28;20497;-83
2023/12/24 09:45:31;;;;;;;6.63;2.75;;;;;;;;;;5795060;28;20047;-83
2023/12/24 09:48:22;;;;;;;2.25;1.23;;;;;;;;;;5793863;28;20062;-83
2023/12/24 09:51:13;;;;;;;2.53;1.60;;;;;;;;;;5793516;28;20129;-83
2023/12/24 09:54:04;;;;;;;2.17;1.75;;;;;;;;;;5795175;28;20054;-83
2023/12/24 09:56:56;;;;;;;3.95;1.65;;;;;;;;;;5795705;28;20055;-84
2023/12/24 09:59:47;;;;;;;7.35;3.53;;;;;;;;;;5794947;28;20049;-84
2023/12/24 10:02:38;;;;;;;7.13;3.17;;;;;;;;;;5794803;28;20050;-84
2023/12/24 10:05:29;;;;;;;1.85;1.55;;;;;;;;;;5790537;28;20047;-83
2023/12/24 10:08:20;;;;;;;2.22;1.95;;;;;;;;;;5793728;28;20523;-83
2023/12/24 10:11:20;;;;;;;5.88;2.20;;;;;;;;;;5794843;28;20061;-83
2023/12/24 10:14:12;;;;;;;1.63;0.98;;;;;;;;;;5793527;28;20062;-83
2023/12/24 10:17:03;;;;;;;5.55;3.83;;;;;;;;;;5803017;28;20129;-83
2023/12/24 10:19:56;;;;;;;1.95;0.93;;;;;;;;;;5794949;28;20055;-84
2023/12/24 10:22:47;;;;;;;2.00;1.08;;;;;;;;;;5808696;28;20046;-83
2023/12/24 10:25:39;;;;;;;2.90;2.33;;;;;;;;;;5794272;28;20465;-83
2023/12/24 10:28:30;;;;;;;9.35;2.55;;;;;;;;;;5792957;28;20069;-84
2023/12/24 10:31:22;;;;;;;1.17;1.08;;;;;;;;;;5777430;28;20043;-84
2023/12/24 10:34:18;;;;;;;1.60;1.23;;;;;;;;;;5809273;28;20059;-84
2023/12/24 10:37:18;;;;;;;1.17;1.08;;;;;;;;;;5792474;28;20061;-83
2023/12/24 10:40:10;;;;;;;1.48;1.38;;;;;;;;;;5794127;28;20050;-83
2023/12/24 10:43:02;;;;;;;2.67;2.25;;;;;;;;;;5792799;28;20093;-83
2023/12/24 10:45:53;;;;;;;8.98;5.68;;;;;;;;;;5794656;28;20065;-83
2023/12/24 10:48:43;;;;;;;3.95;3.53;;;;;;;;;;5794066;28;20043;-83
2023/12/24 10:51:34;;;;;;;4.28;3.88;;;;;;;;;;5792651;28;20051;-84
2023/12/24 10:54:27;;;;;;;5.47;3.45;;;;;;;;;;5793082;28;20046;-83
2023/12/24 10:58:15;;;;;;;8.63;4.35;;;;;;;;;;5809509;28;20098;-83
2023/12/24 11:01:08;;;;;;;5.93;5.22;;;;;;;;;;5794605;28;20082;-83
2023/12/24 11:03:59;;;;;;;4.10;2.53;;;;;;;;;;5778176;28;20130;-84
2023/12/24 11:06:50;;;;;;;5.20;3.58;;;;;;;;;;5809153;28;20050;-84
2023/12/24 11:09:42;;;;;;;15.82;9.40;;;;;;;;;;5794003;28;20473;-84
2023/12/24 11:12:37;;;;;;;14.68;8.05;;;;;;;;;;5793965;28;20047;-84
2023/12/24 11:15:42;;;;;;;30.58;13.43;;;;;;;;;;5792867;28;20047;-84
2023/12/24 11:18:48;;;;;;;19.15;7.47;;;;;;;;;;5792550;28;20050;-84
2023/12/24 11:22:09;;;;;;;12.75;8.45;;;;;;;;;;5792703;28;20051;-84
2023/12/24 11:25:21;;;;;;;20.13;10.57;;;;;;;;;;5792522;28;20152;-82
2023/12/24 11:28:22;;;;;;;12.05;7.70;;;;;;;;;;5792387;28;20055;-84
2023/12/24 11:31:12;;;;;;;17.83;8.23;;;;;;;;;;5777824;28;20062;-84
2023/12/24 11:34:03;;;;;;;14.82;8.68;;;;;;;;;;5792724;28;20047;-84
2023/12/24 11:37:03;;;;;;;18.83;10.93;;;;;;;;;;5777289;28;20047;-84
2023/12/24 11:40:18;;;;;;;16.00;10.10;;;;;;;;;;5808704;28;20138;-84
2023/12/24 11:43:14;;;;;;;8.18;7.03;;;;;;;;;;5807774;28;20055;-85
2023/12/24 11:46:06;;;;;;;16.50;11.63;;;;;;;;;;5793837;28;20053;-85
2023/12/24 11:49:02;;;;;;;19.40;11.95;;;;;;;;;;5778004;28;20047;-85
2023/12/24 11:51:54;;;;;;;15.93;10.13;;;;;;;;;;5796771;28;20055;-84
2023/12/24 11:54:47;;;;;;;18.30;10.65;;;;;;;;;;5797066;28;20493;-85
2023/12/24 11:57:39;;;;;;;22.92;10.95;;;;;;;;;;5781483;28;20059;-85
2023/12/24 12:00:30;;;;;;;11.98;8.10;;;;;;;;;;5799023;28;20046;-84
2023/12/24 12:03:20;;;;;;;16.15;9.85;;;;;;;;;;5784032;28;20368;-85
2023/12/24 12:06:11;;;;;;;26.63;11.80;;;;;;;;;;5784026;28;20055;-85
2023/12/24 12:09:10;;;;;;;16.98;9.35;;;;;;;;;;5804162;28;20054;-84
2023/12/24 12:12:01;;;;;;;10.02;7.47;;;;;;;;;;5810970;28;20501;-84
2023/12/24 12:14:52;;;;;;;13.23;6.97;;;;;;;;;;5805741;28;20436;-84
2023/12/24 12:17:43;;;;;;;13.27;8.10;;;;;;;;;;5802846;28;20043;-84
2023/12/24 12:20:34;;;;;;;12.60;6.30;;;;;;;;;;5802163;28;20516;-83
2023/12/24 12:23:25;;;;;;;11.02;7.15;;;;;;;;;;5816077;28;20047;-84
2023/12/24 12:26:16;;;;;;;16.48;8.73;;;;;;;;;;5785321;28;20429;-84
2023/12/24 12:29:07;;;;;;;20.10;8.55;;;;;;;;;;5808420;28;20417;-83
2023/12/24 12:31:58;;;;;;;8.30;6.95;;;;;;;;;;5811572;28;20101;-84
2023/12/24 12:34:49;;;;;;;13.77;6.53;;;;;;;;;;5823564;28;20046;-85
2023/12/24 12:37:40;;;;;;;17.67;8.85;;;;;;;;;;5801031;28;20141;-85
2023/12/24 12:40:31;;;;;;;13.10;6.43;;;;;;;;;;5797437;28;20047;-84
2023/12/24 12:43:33;;;;;;;10.05;5.57;;;;;;;;;;5797107;28;20094;-85
2023/12/24 12:46:24;;;;;;;8.00;4.65;;;;;;;;;;5797211;28;20046;-85
2023/12/24 12:49:15;;;;;;;5.80;4.57;;;;;;;;;;5779565;28;20095;-86
2023/12/24 12:52:09;;;;;;;18.23;7.90;;;;;;;;;;5779096;28;20051;-86
2023/12/24 12:55:04;;;;;;;20.05;8.80;;;;;;;;;;5795656;28;20050;-86
2023/12/24 12:57:56;;;;;;;32.78;13.02;;;;;;;;;;5811027;28;20047;-86
2023/12/24 13:00:47;;;;;;;12.98;5.75;;;;;;;;;;5810391;28;20716;-87
2023/12/24 13:03:58;;;;;;;3.85;2.90;;;;;;;;;;5796000;28;20046;-87
2023/12/24 13:06:51;;;;;;;4.38;3.53;;;;;;;;;;5795124;28;20055;-88
2023/12/24 13:09:47;;;;;;;10.63;5.40;;;;;;;;;;5795239;28;20050;-86
2023/12/24 13:12:41;;;;;;;10.75;8.13;;;;;;;;;;5795265;28;20065;-86
2023/12/24 13:15:32;;;;;;;10.65;7.82;;;;;;;;;;5778922;28;20523;-85
2023/12/24 13:18:29;;;;;;;17.13;5.38;;;;;;;;;;5794848;28;20126;-85
2023/12/24 13:21:20;;;;;;;6.32;3.65;;;;;;;;;;5796124;28;20481;-84
2023/12/24 13:24:11;;;;;;;5.63;4.85;;;;;;;;;;5796244;28;20062;-84
2023/12/24 13:27:04;;;;;;;13.48;8.25;;;;;;;;;;5794306;28;20051;-84
2023/12/24 13:29:54;;;;;;;19.55;11.18;;;;;;;;;;5795157;28;20050;-85
2023/12/24 13:32:45;;;;;;;11.52;8.95;;;;;;;;;;5795684;28;20508;-85
2023/12/24 13:35:42;;;;;;;17.85;12.88;;;;;;;;;;5794516;28;20385;-84
2023/12/24 13:38:33;;;;;;;19.65;8.48;;;;;;;;;;5807708;28;20057;-85
2023/12/24 13:41:24;;;;;;;8.00;5.78;;;;;;;;;;5795404;28;20050;-84
2023/12/24 13:44:15;;;;;;;11.88;7.55;;;;;;;;;;5778282;28;20058;-84
2023/12/24 13:47:06;;;;;;;10.63;7.00;;;;;;;;;;5793828;28;20058;-83
2023/12/24 13:49:58;;;;;;;8.13;5.78;;;;;;;;;;5794568;28;20113;-84
2023/12/24 13:52:48;;;;;;;8.68;5.88;;;;;;;;;;5795539;28;20058;-84
2023/12/24 13:55:43;;;;;;;12.50;8.70;;;;;;;;;;5809944;28;20309;-83
2023/12/24 13:58:33;;;;;;;9.50;6.13;;;;;;;;;;5795073;28;20047;-84
2023/12/24 14:01:25;;;;;;;13.27;5.65;;;;;;;;;;5778489;28;20516;-83
2023/12/24 14:04:16;;;;;;;9.40;6.07;;;;;;;;;;5809898;28;20457;-84
2023/12/24 14:07:07;;;;;;;12.07;5.78;;;;;;;;;;5795174;28;20046;-83
2023/12/24 14:10:00;;;;;;;9.38;6.70;;;;;;;;;;5795564;28;20055;-83
2023/12/24 14:12:53;;;;;;;8.52;5.78;;;;;;;;;;5778042;28;20053;-83
2023/12/24 14:15:45;;;;;;;4.07;2.97;;;;;;;;;;5795020;28;20519;-82
2023/12/24 14:18:36;;;;;;;12.27;4.15;;;;;;;;;;5795037;28;20046;-82
2023/12/24 14:21:27;;;;;;;6.03;4.43;;;;;;;;;;5793998;28;20130;-82
2023/12/24 14:24:18;;;;;;;5.85;3.80;;;;;;;;;;5793721;28;20065;-82
2023/12/24 14:27:08;;;;;;;10.07;6.90;;;;;;;;;;5794563;28;20398;-82
2023/12/24 14:29:59;;;;;;;14.82;9.88;;;;;;;;;;5795311;28;20046;-81
2023/12/24 14:32:50;;;;;;;20.83;9.35;;;;;;;;;;5793023;28;20046;-82
2023/12/24 14:35:42;;;;;;;14.88;7.78;;;;;;;;;;5793319;28;20058;-82
2023/12/24 14:38:33;;;;;;;12.25;6.78;;;;;;;;;;5794272;28;20049;-82
2023/12/24 14:41:24;;;;;;;11.43;7.30;;;;;;;;;;5793343;28;20146;-82
2023/12/24 14:44:14;;;;;;;4.60;3.30;;;;;;;;;;5793386;28;20197;-82
2023/12/24 14:47:05;;;;;;;5.57;4.00;;;;;;;;;;5792845;28;20054;-81
2023/12/24 14:49:57;;;;;;;8.90;5.45;;;;;;;;;;5794898;28;20079;-81
2023/12/24 14:52:49;;;;;;;11.15;6.57;;;;;;;;;;5794429;28;20050;-81
2023/12/24 14:55:40;;;;;;;12.70;4.55;;;;;;;;;;5793703;28;20043;-82
2023/12/24 14:58:30;;;;;;;9.88;4.07;;;;;;;;;;5794248;28;20065;-81
2023/12/24 15:01:21;;;;;;;6.55;3.45;;;;;;;;;;5793047;28;20050;-81
2023/12/24 15:04:13;;;;;;;6.45;4.57;;;;;;;;;;5792769;28;20134;-81
2023/12/24 15:07:05;;;;;;;7.65;3.70;;;;;;;;;;5794073;28;20057;-81
2023/12/24 15:09:58;;;;;;;4.10;3.25;;;;;;;;;;5801918;28;20425;-81
2023/12/24 15:12:50;;;;;;;6.25;4.78;;;;;;;;;;5794636;28;20603;-81
2023/12/24 15:15:41;;;;;;;4.22;3.72;;;;;;;;;;5794179;28;20469;-80
2023/12/24 15:18:32;;;;;;;4.32;2.80;;;;;;;;;;5792522;28;20039;-81
2023/12/24 15:21:23;;;;;;;6.15;4.60;;;;;;;;;;5792764;28;20050;-81
2023/12/24 15:24:14;;;;;;;11.93;3.72;;;;;;;;;;5795178;28;20066;-81
2023/12/24 15:27:05;;;;;;;5.03;3.33;;;;;;;;;;5813177;28;20047;-81
2023/12/24 15:29:55;;;;;;;10.93;5.22;;;;;;;;;;5798987;28;20047;-81
2023/12/24 15:32:46;;;;;;;4.03;3.13;;;;;;;;;;5812710;28;20484;-81
2023/12/24 15:35:40;;;;;;;5.97;3.38;;;;;;;;;;5797279;28;20213;-82
2023/12/24 15:38:33;;;;;;;2.65;2.40;;;;;;;;;;5798276;28;20172;-81
2023/12/24 15:41:24;;;;;;;6.63;5.53;;;;;;;;;;5796863;28;20516;-82
2023/12/24 15:44:15;;;;;;;4.07;3.58;;;;;;;;;;5796820;28;20062;-82
2023/12/24 15:47:06;;;;;;;4.65;3.63;;;;;;;;;;5798087;28;20129;-81
2023/12/24 15:50:00;;;;;;;9.13;5.28;;;;;;;;;;5798666;28;20136;-82
2023/12/24 15:52:51;;;;;;;7.78;4.38;;;;;;;;;;5796829;28;20062;-82
2023/12/24 15:55:42;;;;;;;7.30;6.10;;;;;;;;;;5780863;28;20452;-83
2023/12/24 15:58:33;;;;;;;5.53;4.18;;;;;;;;;;5797785;28;20050;-83
2023/12/24 16:01:24;;;;;;;10.25;7.75;;;;;;;;;;5796176;28;20050;-83
2023/12/24 16:04:15;;;;;;;6.63;5.10;;;;;;;;;;5796220;28;20054;-83
2023/12/24 16:07:06;;;;;;;16.27;8.45;;;;;;;;;;5780129;28;20046;-84
2023/12/24 16:09:56;;;;;;;5.28;2.75;;;;;;;;;;5796869;28;20051;-83
2023/12/24 16:12:47;;;;;;;9.00;5.32;;;;;;;;;;5796206;28;20523;-84
2023/12/24 16:15:38;;;;;;;4.35;3.95;;;;;;;;;;5810684;28;20047;-84
2023/12/24 16:18:29;;;;;;;6.95;4.55;;;;;;;;;;5795939;28;20043;-83
2023/12/24 16:21:20;;;;;;;8.07;5.70;;;;;;;;;;5795878;28;20055;-84
2023/12/24 16:24:11;;;;;;;10.13;5.18;;;;;;;;;;5780054;28;20050;-84
2023/12/24 16:27:02;;;;;;;11.30;4.57;;;;;;;;;;5779823;28;20055;-84
2023/12/24 16:29:53;;;;;;;3.83;3.45;;;;;;;;;;5797494;28;20051;-84
2023/12/24 16:32:44;;;;;;;11.80;6.53;;;;;;;;;;5779689;28;20162;-85
2023/12/24 16:35:37;;;;;;;8.55;5.00;;;;;;;;;;5795798;28;20082;-84
2023/12/24 16:38:29;;;;;;;11.88;6.82;;;;;;;;;;5795521;28;20077;-84
2023/12/24 16:41:20;;;;;;;6.40;4.15;;;;;;;;;;5797062;28;20051;-84
2023/12/24 16:44:14;;;;;;;6.93;3.60;;;;;;;;;;5795363;28;20072;-84
2023/12/24 16:47:05;;;;;;;5.15;3.25;;;;;;;;;;5796468;28;20061;-85
2023/12/24 16:49:56;;;;;;;4.90;3.20;;;;;;;;;;5795881;28;20061;-85
2023/12/24 16:52:47;;;;;;;3.85;3.42;;;;;;;;;;5796911;28;20058;-84
2023/12/24 16:55:38;;;;;;;6.40;3.53;;;;;;;;;;5796447;28;20050;-84
2023/12/24 16:58:29;;;;;;;4.15;3.50;;;;;;;;;;5795143;28;20053;-84
2023/12/24 17:01:20;;;;;;;8.98;4.38;;;;;;;;;;5795259;28;20105;-84
2023/12/24 17:04:10;;;;;;;6.25;3.45;;;;;;;;;;5794994;28;20053;-84
2023/12/24 17:07:04;;;;;;;9.50;8.50;;;;;;;;;;5795438;28;20055;-85
2023/12/24 17:09:55;;;;;;;5.63;4.68;;;;;;;;;;5796721;28;20062;-84